createdAt,value
2023-02-22T00:01:47.373Z,101153.00
2023-02-22T00:04:15.904Z,101141.84
2023-02-22T00:06:42.346Z,101152.19
2023-02-22T00:09:09.494Z,101145.97
2023-02-22T00:11:35.929Z,101150.81
2023-02-22T00:14:03.102Z,101147.56
2023-02-22T00:16:31.031Z,101143.50
2023-02-22T00:18:57.591Z,101135.63
2023-02-22T00:21:23.995Z,101137.28
2023-02-22T00:23:50.489Z,101132.44
2023-02-22T00:26:20.259Z,101138.88
2023-02-22T00:28:49.054Z,101138.09
2023-02-22T00:31:16.232Z,101133.97
2023-02-22T00:33:43.005Z,101133.16
2023-02-22T00:36:11.773Z,101133.97
2023-02-22T00:38:38.427Z,101129.41
2023-02-22T00:41:05.552Z,101125.28
2023-02-22T00:43:32.006Z,101126.09
2023-02-22T00:45:58.756Z,101116.59
2023-02-22T00:48:25.474Z,101120.13
2023-02-22T00:50:55.401Z,101113.66
2023-02-22T00:53:23.988Z,101115.25
2023-02-22T00:55:51.415Z,101119.88
2023-02-22T00:58:18.612Z,101111.75
2023-02-22T01:00:45.802Z,101113.06
2023-02-22T01:03:15.755Z,101109.53
2023-02-22T01:05:43.007Z,101110.63
2023-02-22T01:08:12.264Z,101108.72
2023-02-22T01:10:39.496Z,101103.88
2023-02-22T01:13:09.025Z,101103.56
2023-02-22T01:15:37.323Z,101098.38
2023-02-22T01:18:05.194Z,101097.31
2023-02-22T01:20:32.406Z,101096.50
2023-02-22T01:23:00.464Z,101099.44
2023-02-22T01:25:30.746Z,101100.28
2023-02-22T01:27:58.702Z,101089.94
2023-02-22T01:30:30.822Z,101091.00
2023-02-22T01:32:58.471Z,101077.47
2023-02-22T01:35:31.372Z,101084.78
2023-02-22T01:37:58.712Z,101071.50
2023-02-22T01:40:29.633Z,101081.50
2023-02-22T01:42:58.955Z,101070.94
2023-02-22T01:45:32.818Z,101064.44
2023-02-22T01:48:22.739Z,101067.47
2023-02-22T01:51:10.611Z,101060.09
2023-02-22T01:53:43.312Z,101063.06
2023-02-22T01:56:10.741Z,101056.84
2023-02-22T01:58:41.236Z,101055.41
2023-02-22T02:01:09.423Z,101057.31
2023-02-22T02:03:38.498Z,101056.22
2023-02-22T02:06:11.816Z,101052.97
2023-02-22T02:09:05.627Z,101058.13
2023-02-22T02:11:32.713Z,101045.66
2023-02-22T02:14:00.065Z,101055.41
2023-02-22T02:16:36.697Z,101048.13
2023-02-22T02:19:08.142Z,101038.63
2023-02-22T02:22:19.481Z,101037.53
2023-02-22T02:25:17.931Z,101036.72
2023-02-22T02:28:04.997Z,101042.13
2023-02-22T02:30:43.459Z,101041.56
2023-02-22T02:33:22.300Z,101030.75
2023-02-22T02:36:03.824Z,101033.47
2023-02-22T02:38:32.970Z,101039.44
2023-02-22T02:41:13.459Z,101035.34
2023-02-22T02:43:53.490Z,101029.34
2023-02-22T02:46:44.080Z,101036.41
2023-02-22T02:49:15.098Z,101029.34
2023-02-22T02:51:47.214Z,101025.75
2023-02-22T02:54:15.052Z,101017.31
2023-02-22T02:56:42.883Z,101014.28
2023-02-22T02:59:44.972Z,101019.38
2023-02-22T03:02:46.242Z,101014.28
2023-02-22T03:05:31.847Z,101006.91
2023-02-22T03:08:17.921Z,101006.84
2023-02-22T03:10:58.026Z,101000.66
2023-02-22T03:13:59.369Z,100997.88
2023-02-22T03:16:56.884Z,101004.84
2023-02-22T03:19:37.049Z,101008.50
2023-02-22T03:22:27.815Z,100994.84
2023-02-22T03:25:14.000Z,100985.50
2023-02-22T03:27:46.343Z,100985.38
2023-02-22T03:30:25.750Z,100985.06
2023-02-22T03:33:23.236Z,100988.84
2023-02-22T03:35:56.812Z,100978.75
2023-02-22T03:38:26.659Z,100977.84
2023-02-22T03:40:59.241Z,100980.19
2023-02-22T03:43:34.559Z,100973.91
2023-02-22T03:46:04.065Z,100973.31
2023-02-22T03:48:54.323Z,100972.16
2023-02-22T03:51:22.693Z,100970.53
2023-02-22T03:53:54.420Z,100974.84
2023-02-22T03:56:35.775Z,100967.50
2023-02-22T03:59:05.628Z,100965.50
2023-02-22T04:01:32.335Z,100961.72
2023-02-22T04:04:00.343Z,100961.63
2023-02-22T04:06:27.924Z,100962.53
2023-02-22T04:08:56.198Z,100963.25
2023-02-22T04:11:22.648Z,100963.00
2023-02-22T04:13:49.629Z,100966.19
2023-02-22T04:16:16.376Z,100964.75
2023-02-22T04:18:43.123Z,100964.44
2023-02-22T04:21:11.869Z,100959.50
2023-02-22T04:23:42.890Z,100968.44
2023-02-22T04:26:11.511Z,100964.66
2023-02-22T04:28:38.512Z,100964.31
2023-02-22T04:31:09.980Z,100962.09
2023-02-22T04:33:37.364Z,100958.00
2023-02-22T04:36:04.404Z,100963.03
2023-02-22T04:38:33.686Z,100963.31
2023-02-22T04:41:00.874Z,100961.06
2023-02-22T04:43:27.723Z,100970.22
2023-02-22T04:46:02.157Z,100967.75
2023-02-22T04:48:28.906Z,100957.06
2023-02-22T04:50:55.483Z,100960.84
2023-02-22T04:53:23.331Z,100954.59
2023-02-22T04:55:49.988Z,100962.00
2023-02-22T04:58:17.240Z,100947.47
2023-02-22T05:00:43.834Z,100941.47
2023-02-22T05:03:10.346Z,100943.25
2023-02-22T05:05:36.787Z,100943.72
2023-02-22T05:08:03.246Z,100942.44
2023-02-22T05:10:29.790Z,100939.88
2023-02-22T05:12:56.680Z,100936.56
2023-02-22T05:15:25.285Z,100937.66
2023-02-22T05:17:53.379Z,100935.19
2023-02-22T05:20:27.892Z,100934.50
2023-02-22T05:22:55.552Z,100929.00
2023-02-22T05:25:22.136Z,100930.16
2023-02-22T05:28:00.892Z,100922.78
2023-02-22T05:30:34.560Z,100936.38
2023-02-22T05:33:01.900Z,100930.50
2023-02-22T05:35:29.176Z,100921.25
2023-02-22T05:37:56.452Z,100919.84
2023-02-22T05:40:26.304Z,100920.44
2023-02-22T05:42:53.571Z,100919.72
2023-02-22T05:45:22.089Z,100913.75
2023-02-22T05:47:49.973Z,100910.72
2023-02-22T05:50:18.048Z,100905.31
2023-02-22T05:52:44.425Z,100906.72
2023-02-22T05:55:13.851Z,100911.28
2023-02-22T05:57:40.422Z,100914.09
2023-02-22T06:00:08.215Z,100906.25
2023-02-22T06:02:40.459Z,100908.00
2023-02-22T06:05:07.371Z,100912.09
2023-02-22T06:07:34.364Z,100906.47
2023-02-22T06:10:00.801Z,100906.69
2023-02-22T06:12:27.961Z,100902.13
2023-02-22T06:14:54.516Z,100900.97
2023-02-22T06:17:20.940Z,100906.25
2023-02-22T06:19:47.473Z,100900.16
2023-02-22T06:22:18.691Z,100905.78
2023-02-22T06:24:45.399Z,100901.31
2023-02-22T06:27:11.845Z,100904.59
2023-02-22T06:29:38.369Z,100904.00
2023-02-22T06:32:05.347Z,100900.97
2023-02-22T06:34:32.234Z,100898.94
2023-02-22T06:37:00.055Z,100908.78
2023-02-22T06:39:28.866Z,100909.38
2023-02-22T06:41:57.821Z,100905.06
2023-02-22T06:44:24.301Z,100916.06
2023-02-22T06:46:51.682Z,100904.47
2023-02-22T06:49:20.132Z,100908.31
2023-02-22T06:51:47.430Z,100910.31
2023-02-22T06:54:14.676Z,100908.66
2023-02-22T06:56:41.058Z,100905.50
2023-02-22T06:59:08.365Z,100907.25
2023-02-22T07:01:35.023Z,100904.31
2023-02-22T07:04:03.930Z,100900.88
2023-02-22T07:06:30.462Z,100903.25
2023-02-22T07:08:57.002Z,100901.00
2023-02-22T07:11:23.468Z,100898.31
2023-02-22T07:13:50.561Z,100902.28
2023-02-22T07:16:17.070Z,100897.34
2023-02-22T07:18:43.636Z,100899.22
2023-02-22T07:21:10.676Z,100895.81
2023-02-22T07:23:37.103Z,100904.97
2023-02-22T07:26:05.443Z,100899.56
2023-02-22T07:28:32.040Z,100906.22
2023-02-22T07:30:59.122Z,100908.28
2023-02-22T07:33:26.891Z,100904.41
2023-02-22T07:35:53.653Z,100904.94
2023-02-22T07:38:20.951Z,100899.63
2023-02-22T07:40:47.672Z,100900.25
2023-02-22T07:43:20.360Z,100904.31
2023-02-22T07:45:48.756Z,100895.56
2023-02-22T07:48:17.627Z,100892.97
2023-02-22T07:50:44.547Z,100894.03
2023-02-22T07:53:18.052Z,100901.97
2023-02-22T07:55:44.584Z,100901.50
2023-02-22T07:58:15.228Z,100895.47
2023-02-22T08:00:43.958Z,100895.84
2023-02-22T08:03:12.981Z,100890.50
2023-02-22T08:05:44.784Z,100891.94
2023-02-22T08:08:11.332Z,100889.38
2023-02-22T08:10:37.957Z,100887.09
2023-02-22T08:13:05.709Z,100882.31
2023-02-22T08:15:34.867Z,100877.84
2023-02-22T08:18:03.882Z,100884.78
2023-02-22T08:20:31.196Z,100883.13
2023-02-22T08:22:58.307Z,100880.53
2023-02-22T08:25:27.147Z,100884.91
2023-02-22T08:27:59.923Z,100887.34
2023-02-22T08:30:28.026Z,100876.34
2023-02-22T08:32:54.846Z,100873.13
2023-02-22T08:35:22.394Z,100874.38
2023-02-22T08:37:54.932Z,100870.09
2023-02-22T08:40:24.065Z,100871.47
2023-02-22T08:42:50.748Z,100869.84
2023-02-22T08:45:18.017Z,100864.72
2023-02-22T08:47:44.610Z,100867.72
2023-02-22T08:50:21.971Z,100865.06
2023-02-22T08:52:51.347Z,100872.19
2023-02-22T08:55:25.127Z,100880.09
2023-02-22T08:57:51.828Z,100877.53
2023-02-22T09:00:20.644Z,100876.22
2023-02-22T09:02:47.089Z,100878.66
2023-02-22T09:05:13.560Z,100870.03
2023-02-22T09:07:44.389Z,100878.19
2023-02-22T09:10:15.431Z,100866.59
2023-02-22T09:12:42.664Z,100867.50
2023-02-22T09:15:09.699Z,100865.09
2023-02-22T09:17:37.379Z,100867.84
2023-02-22T09:20:05.969Z,100865.78
2023-02-22T09:22:32.418Z,100868.28
2023-02-22T09:25:02.623Z,100863.41
2023-02-22T09:27:34.484Z,100865.03
2023-02-22T09:30:01.027Z,100857.47
2023-02-22T09:32:28.138Z,100854.25
2023-02-22T09:34:55.640Z,100852.63
2023-02-22T09:37:22.567Z,100849.69
2023-02-22T09:39:49.213Z,100850.25
2023-02-22T09:42:42.389Z,100843.47
2023-02-22T09:45:22.660Z,100848.66
2023-02-22T09:48:20.937Z,100846.78
2023-02-22T09:50:52.380Z,100853.09
2023-02-22T09:53:30.849Z,100849.78
2023-02-22T09:56:06.957Z,100847.94
2023-02-22T09:58:40.223Z,100845.25
2023-02-22T10:01:29.333Z,100846.91
2023-02-22T10:04:19.088Z,100851.25
2023-02-22T10:07:08.790Z,100838.53
2023-02-22T10:09:42.473Z,100839.88
2023-02-22T10:12:34.003Z,100839.09
2023-02-22T10:15:34.617Z,100836.97
2023-02-22T10:18:28.686Z,100841.59
2023-02-22T10:21:21.810Z,100837.50
2023-02-22T10:24:10.479Z,100835.59
2023-02-22T10:26:41.923Z,100820.97
2023-02-22T10:29:25.319Z,100825.59
2023-02-22T10:31:57.587Z,100826.13
2023-02-22T10:34:28.192Z,100825.59
2023-02-22T10:37:03.350Z,100828.03
2023-02-22T10:39:39.607Z,100818.22
2023-02-22T10:42:09.116Z,100816.06
2023-02-22T10:44:37.597Z,100814.66
2023-02-22T10:47:07.632Z,100819.00
2023-02-22T10:49:43.943Z,100808.94
2023-02-22T10:52:31.047Z,100811.09
2023-02-22T10:55:14.007Z,100803.19
2023-02-22T10:57:44.217Z,100799.94
2023-02-22T11:00:31.138Z,100796.66
2023-02-22T11:03:03.648Z,100797.19
2023-02-22T11:05:30.333Z,100795.84
2023-02-22T11:08:15.581Z,100794.72
2023-02-22T11:10:43.333Z,100787.34
2023-02-22T11:13:31.035Z,100793.31
2023-02-22T11:16:17.028Z,100790.25
2023-02-22T11:18:46.968Z,100785.63
2023-02-22T11:21:22.687Z,100783.75
2023-02-22T11:23:50.352Z,100776.06
2023-02-22T11:26:20.560Z,100777.13
2023-02-22T11:28:50.580Z,100767.81
2023-02-22T11:31:24.127Z,100773.25
2023-02-22T11:36:40.819Z,100761.66
2023-02-22T11:39:21.617Z,100753.91
2023-02-22T11:41:51.069Z,100754.25
2023-02-22T11:44:30.639Z,100754.81
2023-02-22T11:47:06.727Z,100740.84
2023-02-22T11:49:36.741Z,100743.25
2023-02-22T11:52:10.381Z,100736.28
2023-02-22T11:55:00.658Z,100741.16
2023-02-22T11:57:46.770Z,100730.09
2023-02-22T12:00:35.991Z,100731.75
2023-02-22T12:03:28.934Z,100728.19
2023-02-22T12:06:07.006Z,100731.69
2023-02-22T12:08:43.168Z,100722.53
2023-02-22T12:11:39.776Z,100729.81
2023-02-22T12:14:38.780Z,100719.03
2023-02-22T12:17:23.463Z,100714.88
2023-02-22T12:19:54.783Z,100714.53
2023-02-22T12:22:27.270Z,100715.78
2023-02-22T12:25:20.163Z,100704.81
2023-02-22T12:27:51.947Z,100709.00
2023-02-22T12:30:28.858Z,100705.69
2023-02-22T12:32:59.615Z,100701.41
2023-02-22T12:35:35.965Z,100705.56
2023-02-22T12:38:13.479Z,100697.78
2023-02-22T12:40:54.415Z,100696.91
2023-02-22T12:43:28.585Z,100696.63
2023-02-22T12:46:13.876Z,100697.66
2023-02-22T12:48:45.880Z,100699.88
2023-02-22T12:51:15.903Z,100694.41
2023-02-22T12:53:49.405Z,100684.06
2023-02-22T12:56:45.307Z,100690.81
2023-02-22T12:59:35.097Z,100682.13
2023-02-22T13:02:15.327Z,100682.81
2023-02-22T13:04:41.822Z,100683.63
2023-02-22T13:07:17.483Z,100681.22
2023-02-22T13:10:03.003Z,100681.44
2023-02-22T13:12:52.635Z,100682.44
2023-02-22T13:15:28.114Z,100669.88
2023-02-22T13:18:01.486Z,100669.28
2023-02-22T13:20:41.338Z,100668.63
2023-02-22T13:23:25.874Z,100669.06
2023-02-22T13:26:10.794Z,100662.72
2023-02-22T13:28:44.641Z,100664.25
2023-02-22T13:31:30.113Z,100661.53
2023-02-22T13:34:02.820Z,100652.84
2023-02-22T13:37:02.625Z,100656.03
2023-02-22T13:39:39.241Z,100651.53
2023-02-22T13:42:49.029Z,100653.72
2023-02-22T13:45:46.714Z,100650.19
2023-02-22T13:48:24.412Z,100649.72
2023-02-22T13:51:06.584Z,100645.53
2023-02-22T13:53:43.861Z,100642.47
2023-02-22T13:56:11.720Z,100638.81
2023-02-22T13:58:58.081Z,100636.47
2023-02-22T14:01:43.254Z,100640.88
2023-02-22T14:04:30.000Z,100632.91
2023-02-22T14:07:22.515Z,100630.84
2023-02-22T14:09:50.587Z,100633.69
2023-02-22T14:12:29.223Z,100637.25
2023-02-22T14:15:28.737Z,100625.25
2023-02-22T14:18:07.281Z,100631.00
2023-02-22T14:20:36.562Z,100619.34
2023-02-22T14:23:30.064Z,100625.50
2023-02-22T14:26:09.121Z,100620.53
2023-02-22T14:28:41.285Z,100613.28
2023-02-22T14:31:29.467Z,100612.56
2023-02-22T14:34:08.294Z,100613.88
2023-02-22T14:36:56.164Z,100613.28
2023-02-22T14:39:38.238Z,100607.25
2023-02-22T14:42:18.015Z,100607.59
2023-02-22T14:44:56.568Z,100604.75
2023-02-22T14:47:29.589Z,100604.06
2023-02-22T14:50:08.823Z,100605.16
2023-02-22T14:52:38.145Z,100606.81
2023-02-22T14:55:19.869Z,100602.38
2023-02-22T14:57:59.114Z,100601.47
2023-02-22T15:00:59.860Z,100603.41
2023-02-22T15:03:37.809Z,100602.53
2023-02-22T15:06:15.397Z,100607.09
2023-02-22T15:08:48.531Z,100605.78
2023-02-22T15:11:32.405Z,100595.16
2023-02-22T15:14:01.109Z,100597.00
2023-02-22T15:16:31.482Z,100597.22
2023-02-22T15:19:00.935Z,100592.38
2023-02-22T15:21:29.788Z,100581.94
2023-02-22T15:23:59.880Z,100587.78
2023-02-22T15:26:51.867Z,100590.44
2023-02-22T15:29:35.186Z,100580.72
2023-02-22T15:32:17.855Z,100579.81
2023-02-22T15:34:44.382Z,100588.00
2023-02-22T15:37:25.252Z,100585.19
2023-02-22T15:39:59.752Z,100575.91
2023-02-22T15:42:29.407Z,100575.16
2023-02-22T15:44:56.655Z,100583.63
2023-02-22T15:47:27.492Z,100576.16
2023-02-22T15:50:26.954Z,100576.09
2023-02-22T15:52:59.632Z,100580.72
2023-02-22T15:55:38.183Z,100579.75
2023-02-22T15:58:31.207Z,100585.59
2023-02-22T16:01:04.033Z,100581.88
2023-02-22T16:03:47.836Z,100582.06
2023-02-22T16:06:38.522Z,100582.06
2023-02-22T16:09:11.572Z,100586.75
2023-02-22T16:11:43.719Z,100579.81
2023-02-22T16:14:30.703Z,100593.66
2023-02-22T16:17:28.738Z,100580.28
2023-02-22T16:19:55.683Z,100589.09
2023-02-22T16:22:33.872Z,100584.16
2023-02-22T16:25:16.476Z,100589.44
2023-02-22T16:27:48.471Z,100583.84
2023-02-22T16:30:24.293Z,100583.03
2023-02-22T16:32:52.603Z,100585.53
2023-02-22T16:35:19.191Z,100592.97
2023-02-22T16:37:46.707Z,100588.81
2023-02-22T16:40:22.524Z,100589.56
2023-02-22T16:42:50.233Z,100597.38
2023-02-22T16:45:17.813Z,100598.25
2023-02-22T16:47:45.209Z,100589.63
2023-02-22T16:50:12.688Z,100592.13
2023-02-22T16:52:40.405Z,100596.56
2023-02-22T16:55:11.882Z,100592.19
2023-02-22T16:57:39.522Z,100591.66
2023-02-22T17:00:37.322Z,100594.19
2023-02-22T17:03:05.405Z,100598.34
2023-02-22T17:05:36.023Z,100602.75
2023-02-22T17:08:05.310Z,100599.53
2023-02-22T17:10:32.028Z,100602.78
2023-02-22T17:13:05.222Z,100605.53
2023-02-22T17:15:40.277Z,100600.13
2023-02-22T17:18:16.177Z,100604.25
2023-02-22T17:20:45.651Z,100609.72
2023-02-22T17:23:12.951Z,100606.19
2023-02-22T17:25:59.088Z,100608.94
2023-02-22T17:28:26.801Z,100611.41
2023-02-22T17:31:00.621Z,100613.59
2023-02-22T17:33:29.861Z,100608.94
2023-02-22T17:35:59.008Z,100611.66
2023-02-22T17:38:28.891Z,100617.38
2023-02-22T17:40:56.264Z,100616.81
2023-02-22T17:43:23.911Z,100618.19
2023-02-22T17:45:50.932Z,100619.31
2023-02-22T17:48:18.467Z,100622.81
2023-02-22T17:50:46.681Z,100625.53
2023-02-22T17:53:13.635Z,100619.84
2023-02-22T17:55:42.000Z,100628.00
2023-02-22T17:58:14.416Z,100627.22
2023-02-22T18:00:44.623Z,100627.78
2023-02-22T18:03:21.079Z,100619.91
2023-02-22T18:05:50.347Z,100619.38
2023-02-22T18:08:16.976Z,100630.78
2023-02-22T18:10:45.011Z,100618.59
2023-02-22T18:13:19.608Z,100623.72
2023-02-22T18:15:47.031Z,100620.47
2023-02-22T18:18:17.651Z,100629.69
2023-02-22T18:20:46.685Z,100630.53
2023-02-22T18:23:16.079Z,100621.56
2023-02-22T18:26:03.739Z,100623.47
2023-02-22T18:28:35.486Z,100623.44
2023-02-22T18:31:10.186Z,100631.31
2023-02-22T18:33:36.780Z,100632.66
2023-02-22T18:36:04.461Z,100626.97
2023-02-22T18:38:31.171Z,100622.06
2023-02-22T18:41:02.868Z,100624.50
2023-02-22T18:43:31.688Z,100631.00
2023-02-22T18:46:20.004Z,100626.91
2023-02-22T18:48:48.473Z,100625.53
2023-02-22T18:51:17.625Z,100625.53
2023-02-22T18:53:47.579Z,100622.00
2023-02-22T18:56:21.549Z,100622.25
2023-02-22T18:58:52.610Z,100616.00
2023-02-22T19:01:19.332Z,100618.69
2023-02-22T19:03:49.598Z,100619.22
2023-02-22T19:06:17.093Z,100613.25
2023-02-22T19:08:45.717Z,100611.66
2023-02-22T19:11:21.785Z,100617.88
2023-02-22T19:13:53.744Z,100616.50
2023-02-22T19:16:22.289Z,100615.44
2023-02-22T19:18:50.759Z,100611.34
2023-02-22T19:21:17.735Z,100608.63
2023-02-22T19:23:48.210Z,100608.09
2023-02-22T19:26:21.061Z,100608.63
2023-02-22T19:28:48.729Z,100602.66
2023-02-22T19:31:18.580Z,100605.91
2023-02-22T19:33:47.477Z,100607.28
2023-02-22T19:36:14.702Z,100604.28
2023-02-22T19:38:41.678Z,100613.16
2023-02-22T19:41:27.192Z,100603.38
2023-02-22T19:43:55.936Z,100604.47
2023-02-22T19:46:24.711Z,100603.34
2023-02-22T19:48:52.525Z,100605.81
2023-02-22T19:51:20.929Z,100606.59
2023-02-22T19:53:48.049Z,100596.34
2023-02-22T19:56:17.754Z,100606.88
2023-02-22T19:58:50.751Z,100605.28
2023-02-22T20:01:23.722Z,100602.03
2023-02-22T20:03:54.770Z,100603.91
2023-02-22T20:06:23.031Z,100602.31
2023-02-22T20:08:50.935Z,100607.97
2023-02-22T20:11:17.596Z,100613.66
2023-02-22T20:13:45.338Z,100611.75
2023-02-22T20:16:15.915Z,100611.47
2023-02-22T20:18:43.996Z,100618.78
2023-02-22T20:21:13.924Z,100626.13
2023-02-22T20:23:44.102Z,100619.06
2023-02-22T20:26:20.600Z,100617.69
2023-02-22T20:28:48.436Z,100615.78
2023-02-22T20:31:16.791Z,100612.50
2023-02-22T20:33:45.732Z,100611.94
2023-02-22T20:36:15.150Z,100616.28
2023-02-22T20:38:41.866Z,100620.56
2023-02-22T20:41:13.384Z,100616.78
2023-02-22T20:43:40.032Z,100621.91
2023-02-22T20:46:07.264Z,100617.00
2023-02-22T20:48:34.233Z,100609.41
2023-02-22T20:51:09.251Z,100609.13
2023-02-22T20:53:39.238Z,100613.72
2023-02-22T20:56:06.721Z,100615.59
2023-02-22T20:58:33.185Z,100614.75
2023-02-22T21:01:05.143Z,100613.34
2023-02-22T21:03:35.626Z,100619.03
2023-02-22T21:06:05.124Z,100619.00
2023-02-22T21:08:32.865Z,100621.41
2023-02-22T21:11:00.209Z,100612.19
2023-02-22T21:13:27.637Z,100620.88
2023-02-22T21:15:55.196Z,100611.31
2023-02-22T21:18:24.711Z,100609.94
2023-02-22T21:20:52.117Z,100627.94
2023-02-22T21:23:18.535Z,100614.94
2023-02-22T21:25:54.886Z,100610.81
2023-02-22T21:28:21.400Z,100606.47
2023-02-22T21:30:48.235Z,100602.13
2023-02-22T21:33:17.721Z,100599.47
2023-02-22T21:35:46.908Z,100595.41
2023-02-22T21:38:17.760Z,100604.59
2023-02-22T21:40:47.172Z,100598.88
2023-02-22T21:43:13.641Z,100607.00
2023-02-22T21:45:40.053Z,100596.16
2023-02-22T21:48:06.655Z,100606.19
2023-02-22T21:50:37.598Z,100611.53
2023-02-22T21:53:05.505Z,100600.44
2023-02-22T21:55:33.782Z,100599.84
2023-02-22T21:58:00.361Z,100604.16
2023-02-22T22:00:31.176Z,100601.16
2023-02-22T22:03:12.268Z,100604.59
2023-02-22T22:05:39.532Z,100600.50
2023-02-22T22:08:13.148Z,100610.28
2023-02-22T22:10:39.576Z,100599.41
2023-02-22T22:13:08.963Z,100605.88
2023-02-22T22:15:37.243Z,100606.13
2023-02-22T22:18:06.522Z,100605.56
2023-02-22T22:20:33.243Z,100604.75
2023-02-22T22:23:00.063Z,100605.00
2023-02-22T22:25:28.353Z,100612.31
2023-02-22T22:27:56.101Z,100601.19
2023-02-22T22:30:22.890Z,100608.97
2023-02-22T22:32:49.464Z,100605.47
2023-02-22T22:35:15.983Z,100611.38
2023-02-22T22:37:43.028Z,100614.06
2023-02-22T22:40:15.531Z,100609.50
2023-02-22T22:42:42.600Z,100611.94
2023-02-22T22:45:12.991Z,100608.16
2023-02-22T22:47:45.881Z,100620.63
2023-02-22T22:50:14.791Z,100611.69
2023-02-22T22:52:41.713Z,100613.03
2023-02-22T22:55:11.913Z,100620.03
2023-02-22T22:57:39.806Z,100616.78
2023-02-22T23:00:26.560Z,100621.88
2023-02-22T23:02:56.278Z,100611.06
2023-02-22T23:05:28.902Z,100626.47
2023-02-22T23:07:56.472Z,100622.63
2023-02-22T23:10:27.112Z,100620.72
2023-02-22T23:13:21.140Z,100617.13
2023-02-22T23:16:12.573Z,100626.56
2023-02-22T23:18:43.001Z,100623.16
2023-02-22T23:21:10.258Z,100623.03
2023-02-22T23:23:37.961Z,100624.91
2023-02-22T23:26:20.575Z,100623.56
2023-02-22T23:28:48.486Z,100631.38
2023-02-22T23:31:17.793Z,100630.31
2023-02-22T23:33:48.173Z,100625.22
2023-02-22T23:36:16.490Z,100632.34
2023-02-22T23:38:43.473Z,100627.50
2023-02-22T23:41:18.911Z,100632.72
2023-02-22T23:43:45.864Z,100625.28
2023-02-22T23:46:18.241Z,100632.94
2023-02-22T23:48:52.196Z,100644.19
2023-02-22T23:51:25.350Z,100639.22
2023-02-22T23:53:55.658Z,100640.19
2023-02-22T23:56:27.932Z,100637.41
2023-02-22T23:58:57.109Z,100634.47
